sensor_id;sensor_type;location;lat;lon;timestamp;temperature;humidity
37300;DHT22;23184;51.902;12.836;2024-01-15T00:01:26;1.10;99.90
37300;DHT22;23184;51.902;12.836;2024-01-15T00:03:52;1.10;99.90
37300;DHT22;23184;51.902;12.836;2024-01-15T00:06:17;1.10;99.90
37300;DHT22;23184;51.902;12.836;2024-01-15T00:08:43;1.20;99.90
37300;DHT22;23184;51.902;12.836;2024-01-15T00:11:08;1.20;99.90
37300;DHT22;23184;51.902;12.836;2024-01-15T00:13:33;1.10;99.90
37300;DHT22;23184;51.902;12.836;2024-01-15T00:15:59;1.20;99.90
37300;DHT22;23184;51.902;12.836;2024-01-15T00:18:25;1.20;99.90
37300;DHT22;23184;51.902;12.836;2024-01-15T00:20:50;1.20;99.90
37300;DHT22;23184;51.902;12.836;2024-01-15T00:23:16;1.20;99.90
37300;DHT22;23184;51.902;12.836;2024-01-15T00:25:41;1.10;99.90
37300;DHT22;23184;51.902;12.836;2024-01-15T00:28:07;1.10;99.90
37300;DHT22;23184;51.902;12.836;2024-01-15T00:30:32;1.10;99.90
37300;DHT22;23184;51.902;12.836;2024-01-15T00:32:58;1.10;99.90
37300;DHT22;23184;51.902;12.836;2024-01-15T00:35:23;1.10;99.90
37300;DHT22;23184;51.902;12.836;2024-01-15T00:37:49;1.10;99.90
37300;DHT22;23184;51.902;12.836;2024-01-15T00:40:14;1.00;99.90
37300;DHT22;23184;51.902;12.836;2024-01-15T00:42:40;1.10;99.90
37300;DHT22;23184;51.902;12.836;2024-01-15T00:45:05;1.00;99.90
37300;DHT22;23184;51.902;12.836;2024-01-15T00:47:33;1.00;99.90
37300;DHT22;23184;51.902;12.836;2024-01-15T00:49:58;0.90;99.90
37300;DHT22;23184;51.902;12.836;2024-01-15T00:52:24;0.90;99.90
37300;DHT22;23184;51.902;12.836;2024-01-15T00:54:49;0.90;99.90
37300;DHT22;23184;51.902;12.836;2024-01-15T00:57:15;1.00;99.90
37300;DHT22;23184;51.902;12.836;2024-01-15T00:59:40;1.00;99.90
37300;DHT22;23184;51.902;12.836;2024-01-15T01:02:06;1.00;99.90
37300;DHT22;23184;51.902;12.836;2024-01-15T01:04:31;1.00;99.90
37300;DHT22;23184;51.902;12.836;2024-01-15T01:06:57;1.10;99.90
37300;DHT22;23184;51.902;12.836;2024-01-15T01:09:22;1.00;99.90
37300;DHT22;23184;51.902;12.836;2024-01-15T01:11:48;1.00;99.90
37300;DHT22;23184;51.902;12.836;2024-01-15T01:14:13;1.10;99.90
37300;DHT22;23184;51.902;12.836;2024-01-15T01:16:39;1.10;99.90
37300;DHT22;23184;51.902;12.836;2024-01-15T01:19:07;1.10;99.90
37300;DHT22;23184;51.902;12.836;2024-01-15T01:21:33;1.10;99.90
37300;DHT22;23184;51.902;12.836;2024-01-15T01:23:59;1.10;99.90
37300;DHT22;23184;51.902;12.836;2024-01-15T01:26:24;1.10;99.90
37300;DHT22;23184;51.902;12.836;2024-01-15T01:28:50;1.00;99.90
37300;DHT22;23184;51.902;12.836;2024-01-15T01:31:16;1.00;99.90
37300;DHT22;23184;51.902;12.836;2024-01-15T01:33:42;1.00;99.90
37300;DHT22;23184;51.902;12.836;2024-01-15T01:36:08;0.90;99.90
37300;DHT22;23184;51.902;12.836;2024-01-15T01:38:35;0.90;99.90
37300;DHT22;23184;51.902;12.836;2024-01-15T01:41:00;0.90;99.90
37300;DHT22;23184;51.902;12.836;2024-01-15T01:43:26;0.90;99.90
37300;DHT22;23184;51.902;12.836;2024-01-15T01:45:51;0.90;99.90
37300;DHT22;23184;51.902;12.836;2024-01-15T01:48:17;0.90;99.90
37300;DHT22;23184;51.902;12.836;2024-01-15T01:50:43;0.90;99.90
37300;DHT22;23184;51.902;12.836;2024-01-15T01:53:09;0.90;99.90
37300;DHT22;23184;51.902;12.836;2024-01-15T01:55:36;0.90;99.90
37300;DHT22;23184;51.902;12.836;2024-01-15T01:58:03;0.90;99.90
37300;DHT22;23184;51.902;12.836;2024-01-15T02:00:30;0.90;99.90
37300;DHT22;23184;51.902;12.836;2024-01-15T02:02:56;0.90;99.90
37300;DHT22;23184;51.902;12.836;2024-01-15T02:05:22;0.90;99.90
37300;DHT22;23184;51.902;12.836;2024-01-15T02:07:47;0.90;99.90
37300;DHT22;23184;51.902;12.836;2024-01-15T02:10:14;0.90;99.90
37300;DHT22;23184;51.902;12.836;2024-01-15T02:12:39;1.00;99.90
37300;DHT22;23184;51.902;12.836;2024-01-15T02:15:05;0.90;99.90
37300;DHT22;23184;51.902;12.836;2024-01-15T02:17:31;0.90;99.90
37300;DHT22;23184;51.902;12.836;2024-01-15T02:19:56;0.90;99.90
37300;DHT22;23184;51.902;12.836;2024-01-15T02:22:22;1.00;99.90
37300;DHT22;23184;51.902;12.836;2024-01-15T02:24:48;0.90;99.90
37300;DHT22;23184;51.902;12.836;2024-01-15T02:27:13;0.90;99.90
37300;DHT22;23184;51.902;12.836;2024-01-15T02:29:39;0.90;99.90
37300;DHT22;23184;51.902;12.836;2024-01-15T02:32:06;0.90;99.90
37300;DHT22;23184;51.902;12.836;2024-01-15T02:34:32;0.90;99.90
37300;DHT22;23184;51.902;12.836;2024-01-15T02:36:58;0.90;99.90
37300;DHT22;23184;51.902;12.836;2024-01-15T02:39:23;1.00;99.90
37300;DHT22;23184;51.902;12.836;2024-01-15T02:41:49;0.90;99.90
37300;DHT22;23184;51.902;12.836;2024-01-15T02:44:14;1.00;99.90
37300;DHT22;23184;51.902;12.836;2024-01-15T02:46:40;0.90;99.90
37300;DHT22;23184;51.902;12.836;2024-01-15T02:49:05;1.00;99.90
37300;DHT22;23184;51.902;12.836;2024-01-15T02:51:31;1.00;99.90
37300;DHT22;23184;51.902;12.836;2024-01-15T02:53:56;0.90;99.90
37300;DHT22;23184;51.902;12.836;2024-01-15T02:56:22;0.80;99.90
37300;DHT22;23184;51.902;12.836;2024-01-15T02:58:47;0.80;99.90
37300;DHT22;23184;51.902;12.836;2024-01-15T03:01:13;0.80;99.90
37300;DHT22;23184;51.902;12.836;2024-01-15T03:03:40;0.80;99.90
37300;DHT22;23184;51.902;12.836;2024-01-15T03:06:05;0.80;99.90
37300;DHT22;23184;51.902;12.836;2024-01-15T03:08:31;0.80;99.90
37300;DHT22;23184;51.902;12.836;2024-01-15T03:10:56;0.80;99.90
37300;DHT22;23184;51.902;12.836;2024-01-15T03:13:22;0.70;99.90
37300;DHT22;23184;51.902;12.836;2024-01-15T03:15:48;0.70;99.90
37300;DHT22;23184;51.902;12.836;2024-01-15T03:18:13;0.70;99.90
37300;DHT22;23184;51.902;12.836;2024-01-15T03:20:39;0.70;99.90
37300;DHT22;23184;51.902;12.836;2024-01-15T03:23:04;0.70;99.90
37300;DHT22;23184;51.902;12.836;2024-01-15T03:25:30;0.70;99.90
37300;DHT22;23184;51.902;12.836;2024-01-15T03:27:55;0.70;99.90
37300;DHT22;23184;51.902;12.836;2024-01-15T03:30:21;0.70;99.90
37300;DHT22;23184;51.902;12.836;2024-01-15T03:32:46;0.70;99.90
37300;DHT22;23184;51.902;12.836;2024-01-15T03:35:12;0.70;99.90
37300;DHT22;23184;51.902;12.836;2024-01-15T03:37:38;0.80;99.90
37300;DHT22;23184;51.902;12.836;2024-01-15T03:40:04;0.80;99.90
37300;DHT22;23184;51.902;12.836;2024-01-15T03:42:29;0.80;99.90
37300;DHT22;23184;51.902;12.836;2024-01-15T03:44:55;0.80;99.90
37300;DHT22;23184;51.902;12.836;2024-01-15T03:47:21;0.80;99.90
37300;DHT22;23184;51.902;12.836;2024-01-15T03:49:46;0.80;99.90
37300;DHT22;23184;51.902;12.836;2024-01-15T03:52:11;0.80;99.90
37300;DHT22;23184;51.902;12.836;2024-01-15T03:54:37;0.80;99.90
37300;DHT22;23184;51.902;12.836;2024-01-15T03:57:03;0.80;99.90
37300;DHT22;23184;51.902;12.836;2024-01-15T03:59:28;0.80;99.90
37300;DHT22;23184;51.902;12.836;2024-01-15T04:01:54;0.90;99.90
37300;DHT22;23184;51.902;12.836;2024-01-15T04:04:19;0.90;99.90
37300;DHT22;23184;51.902;12.836;2024-01-15T04:06:45;0.90;99.90
37300;DHT22;23184;51.902;12.836;2024-01-15T04:09:12;1.00;99.90
37300;DHT22;23184;51.902;12.836;2024-01-15T04:11:39;1.00;99.90
37300;DHT22;23184;51.902;12.836;2024-01-15T04:14:05;0.90;99.90
37300;DHT22;23184;51.902;12.836;2024-01-15T04:16:30;0.90;99.90
37300;DHT22;23184;51.902;12.836;2024-01-15T04:18:56;0.90;99.90
37300;DHT22;23184;51.902;12.836;2024-01-15T04:21:21;1.00;99.90
37300;DHT22;23184;51.902;12.836;2024-01-15T04:23:47;1.00;99.90
37300;DHT22;23184;51.902;12.836;2024-01-15T04:26:12;1.00;99.90
37300;DHT22;23184;51.902;12.836;2024-01-15T04:28:38;1.00;99.90
37300;DHT22;23184;51.902;12.836;2024-01-15T04:31:03;1.10;99.90
37300;DHT22;23184;51.902;12.836;2024-01-15T04:33:29;1.10;99.90
37300;DHT22;23184;51.902;12.836;2024-01-15T04:35:54;1.10;99.90
37300;DHT22;23184;51.902;12.836;2024-01-15T04:38:20;1.10;99.90
37300;DHT22;23184;51.902;12.836;2024-01-15T04:40:45;1.20;99.90
37300;DHT22;23184;51.902;12.836;2024-01-15T04:43:10;1.20;99.90
37300;DHT22;23184;51.902;12.836;2024-01-15T04:45:36;1.20;99.90
37300;DHT22;23184;51.902;12.836;2024-01-15T04:48:02;1.20;99.90
37300;DHT22;23184;51.902;12.836;2024-01-15T04:50:28;1.20;99.90
37300;DHT22;23184;51.902;12.836;2024-01-15T04:52:53;1.20;99.90
37300;DHT22;23184;51.902;12.836;2024-01-15T04:55:19;1.20;99.90
37300;DHT22;23184;51.902;12.836;2024-01-15T04:57:44;1.20;99.90
37300;DHT22;23184;51.902;12.836;2024-01-15T05:00:10;1.10;99.90
37300;DHT22;23184;51.902;12.836;2024-01-15T05:02:37;1.10;99.90
37300;DHT22;23184;51.902;12.836;2024-01-15T05:05:03;1.10;99.90
37300;DHT22;23184;51.902;12.836;2024-01-15T05:07:28;1.10;99.90
37300;DHT22;23184;51.902;12.836;2024-01-15T05:09:54;0.90;99.90
37300;DHT22;23184;51.902;12.836;2024-01-15T05:12:19;0.90;99.90
37300;DHT22;23184;51.902;12.836;2024-01-15T05:14:45;0.90;99.90
37300;DHT22;23184;51.902;12.836;2024-01-15T05:17:10;0.80;99.90
37300;DHT22;23184;51.902;12.836;2024-01-15T05:19:36;0.80;99.90
37300;DHT22;23184;51.902;12.836;2024-01-15T05:22:01;0.70;99.90
37300;DHT22;23184;51.902;12.836;2024-01-15T05:24:27;0.70;99.90
37300;DHT22;23184;51.902;12.836;2024-01-15T05:26:52;0.70;99.90
37300;DHT22;23184;51.902;12.836;2024-01-15T05:29:18;0.70;99.90
37300;DHT22;23184;51.902;12.836;2024-01-15T05:31:43;0.70;99.90
37300;DHT22;23184;51.902;12.836;2024-01-15T05:34:09;0.80;99.90
37300;DHT22;23184;51.902;12.836;2024-01-15T05:36:34;0.70;99.90
37300;DHT22;23184;51.902;12.836;2024-01-15T05:39:00;0.80;99.90
37300;DHT22;23184;51.902;12.836;2024-01-15T05:41:25;0.80;99.90
37300;DHT22;23184;51.902;12.836;2024-01-15T05:43:51;0.80;99.90
37300;DHT22;23184;51.902;12.836;2024-01-15T05:46:17;0.90;99.90
37300;DHT22;23184;51.902;12.836;2024-01-15T05:48:42;0.80;99.90
37300;DHT22;23184;51.902;12.836;2024-01-15T05:51:08;0.90;99.90
37300;DHT22;23184;51.902;12.836;2024-01-15T05:53:33;0.90;99.90
37300;DHT22;23184;51.902;12.836;2024-01-15T05:55:59;0.90;99.90
37300;DHT22;23184;51.902;12.836;2024-01-15T05:58:26;0.90;99.90
37300;DHT22;23184;51.902;12.836;2024-01-15T06:00:51;0.90;99.90
37300;DHT22;23184;51.902;12.836;2024-01-15T06:03:17;0.90;99.90
37300;DHT22;23184;51.902;12.836;2024-01-15T06:05:42;0.80;99.90
37300;DHT22;23184;51.902;12.836;2024-01-15T06:08:08;0.90;99.90
37300;DHT22;23184;51.902;12.836;2024-01-15T06:10:33;0.90;99.90
37300;DHT22;23184;51.902;12.836;2024-01-15T06:12:59;1.00;99.90
37300;DHT22;23184;51.902;12.836;2024-01-15T06:15:24;1.00;99.90
37300;DHT22;23184;51.902;12.836;2024-01-15T06:17:50;1.10;99.90
37300;DHT22;23184;51.902;12.836;2024-01-15T06:20:15;1.00;99.90
37300;DHT22;23184;51.902;12.836;2024-01-15T06:22:41;1.00;99.90
37300;DHT22;23184;51.902;12.836;2024-01-15T06:25:08;1.00;99.90
37300;DHT22;23184;51.902;12.836;2024-01-15T06:27:34;1.00;99.90
37300;DHT22;23184;51.902;12.836;2024-01-15T06:29:59;1.00;99.90
37300;DHT22;23184;51.902;12.836;2024-01-15T06:32:25;0.90;99.90
37300;DHT22;23184;51.902;12.836;2024-01-15T06:34:50;0.90;99.90
37300;DHT22;23184;51.902;12.836;2024-01-15T06:37:16;0.90;99.90
37300;DHT22;23184;51.902;12.836;2024-01-15T06:39:41;0.90;99.90
37300;DHT22;23184;51.902;12.836;2024-01-15T06:42:07;1.00;99.90
37300;DHT22;23184;51.902;12.836;2024-01-15T06:44:32;1.00;99.90
37300;DHT22;23184;51.902;12.836;2024-01-15T06:46:58;1.00;99.90
37300;DHT22;23184;51.902;12.836;2024-01-15T06:49:28;1.00;99.90
37300;DHT22;23184;51.902;12.836;2024-01-15T06:51:53;1.00;99.90
37300;DHT22;23184;51.902;12.836;2024-01-15T06:54:19;1.00;99.90
37300;DHT22;23184;51.902;12.836;2024-01-15T06:56:44;1.00;99.90
37300;DHT22;23184;51.902;12.836;2024-01-15T06:59:10;1.00;99.90
37300;DHT22;23184;51.902;12.836;2024-01-15T07:01:35;1.00;99.90
37300;DHT22;23184;51.902;12.836;2024-01-15T07:04:01;1.00;99.90
37300;DHT22;23184;51.902;12.836;2024-01-15T07:06:26;0.90;99.90
37300;DHT22;23184;51.902;12.836;2024-01-15T07:08:52;0.90;99.90
37300;DHT22;23184;51.902;12.836;2024-01-15T07:11:17;1.00;99.90
37300;DHT22;23184;51.902;12.836;2024-01-15T07:13:43;1.00;99.90
37300;DHT22;23184;51.902;12.836;2024-01-15T07:16:08;1.10;99.90
37300;DHT22;23184;51.902;12.836;2024-01-15T07:18:34;1.00;99.90
37300;DHT22;23184;51.902;12.836;2024-01-15T07:20:59;1.10;99.90
37300;DHT22;23184;51.902;12.836;2024-01-15T07:23:26;1.10;99.90
37300;DHT22;23184;51.902;12.836;2024-01-15T07:25:52;1.10;99.90
37300;DHT22;23184;51.902;12.836;2024-01-15T07:28:19;1.20;99.90
37300;DHT22;23184;51.902;12.836;2024-01-15T07:30:44;1.10;99.90
37300;DHT22;23184;51.902;12.836;2024-01-15T07:33:10;1.20;99.90
37300;DHT22;23184;51.902;12.836;2024-01-15T07:35:36;1.10;99.90
37300;DHT22;23184;51.902;12.836;2024-01-15T07:38:01;1.10;99.90
37300;DHT22;23184;51.902;12.836;2024-01-15T07:40:27;1.10;99.90
37300;DHT22;23184;51.902;12.836;2024-01-15T07:42:53;1.10;99.90
37300;DHT22;23184;51.902;12.836;2024-01-15T07:45:19;1.20;99.90
37300;DHT22;23184;51.902;12.836;2024-01-15T07:47:44;1.20;99.90
37300;DHT22;23184;51.902;12.836;2024-01-15T07:50:10;1.20;99.90
37300;DHT22;23184;51.902;12.836;2024-01-15T07:52:35;1.20;99.90
37300;DHT22;23184;51.902;12.836;2024-01-15T07:55:01;1.20;99.90
37300;DHT22;23184;51.902;12.836;2024-01-15T07:57:28;1.30;99.90
37300;DHT22;23184;51.902;12.836;2024-01-15T07:59:54;1.20;99.90
37300;DHT22;23184;51.902;12.836;2024-01-15T08:02:19;1.20;99.90
37300;DHT22;23184;51.902;12.836;2024-01-15T08:04:45;1.20;99.90
37300;DHT22;23184;51.902;12.836;2024-01-15T08:07:11;1.20;99.90
37300;DHT22;23184;51.902;12.836;2024-01-15T08:09:36;1.20;99.90
37300;DHT22;23184;51.902;12.836;2024-01-15T08:12:02;1.20;99.90
37300;DHT22;23184;51.902;12.836;2024-01-15T08:14:28;1.20;99.90
37300;DHT22;23184;51.902;12.836;2024-01-15T08:16:53;1.20;99.90
37300;DHT22;23184;51.902;12.836;2024-01-15T08:19:19;1.10;99.90
37300;DHT22;23184;51.902;12.836;2024-01-15T08:21:45;1.00;99.90
37300;DHT22;23184;51.902;12.836;2024-01-15T08:24:10;1.00;99.90
37300;DHT22;23184;51.902;12.836;2024-01-15T08:26:36;1.00;99.90
37300;DHT22;23184;51.902;12.836;2024-01-15T08:29:02;1.00;99.90
37300;DHT22;23184;51.902;12.836;2024-01-15T08:31:27;1.00;99.90
37300;DHT22;23184;51.902;12.836;2024-01-15T08:33:53;1.10;99.90
37300;DHT22;23184;51.902;12.836;2024-01-15T08:36:19;1.10;99.90
37300;DHT22;23184;51.902;12.836;2024-01-15T08:38:44;1.10;99.90
37300;DHT22;23184;51.902;12.836;2024-01-15T08:41:10;1.10;99.90
37300;DHT22;23184;51.902;12.836;2024-01-15T08:43:36;1.10;99.90
37300;DHT22;23184;51.902;12.836;2024-01-15T08:46:02;1.10;99.90
37300;DHT22;23184;51.902;12.836;2024-01-15T08:48:27;1.10;99.90
37300;DHT22;23184;51.902;12.836;2024-01-15T08:50:54;1.20;99.90
37300;DHT22;23184;51.902;12.836;2024-01-15T08:53:20;1.20;99.90
37300;DHT22;23184;51.902;12.836;2024-01-15T08:55:46;1.20;99.90
37300;DHT22;23184;51.902;12.836;2024-01-15T08:58:11;1.20;99.90
37300;DHT22;23184;51.902;12.836;2024-01-15T09:00:37;1.20;99.90
37300;DHT22;23184;51.902;12.836;2024-01-15T09:03:03;1.20;99.90
37300;DHT22;23184;51.902;12.836;2024-01-15T09:05:28;1.20;99.90
37300;DHT22;23184;51.902;12.836;2024-01-15T09:07:54;1.20;99.90
37300;DHT22;23184;51.902;12.836;2024-01-15T09:10:20;1.30;99.90
37300;DHT22;23184;51.902;12.836;2024-01-15T09:12:46;1.30;99.90
37300;DHT22;23184;51.902;12.836;2024-01-15T09:15:11;1.30;99.90
37300;DHT22;23184;51.902;12.836;2024-01-15T09:17:37;1.30;99.90
37300;DHT22;23184;51.902;12.836;2024-01-15T09:20:03;1.30;99.90
37300;DHT22;23184;51.902;12.836;2024-01-15T09:22:31;1.30;99.90
37300;DHT22;23184;51.902;12.836;2024-01-15T09:24:56;1.30;99.90
37300;DHT22;23184;51.902;12.836;2024-01-15T09:27:22;1.30;99.90
37300;DHT22;23184;51.902;12.836;2024-01-15T09:29:47;1.30;99.90
37300;DHT22;23184;51.902;12.836;2024-01-15T09:32:13;1.30;99.90
37300;DHT22;23184;51.902;12.836;2024-01-15T09:34:39;1.30;99.90
37300;DHT22;23184;51.902;12.836;2024-01-15T09:37:04;1.30;99.90
37300;DHT22;23184;51.902;12.836;2024-01-15T09:39:30;1.30;99.90
37300;DHT22;23184;51.902;12.836;2024-01-15T09:41:57;1.30;99.90
37300;DHT22;23184;51.902;12.836;2024-01-15T09:44:23;1.40;99.90
37300;DHT22;23184;51.902;12.836;2024-01-15T09:46:49;1.40;99.90
37300;DHT22;23184;51.902;12.836;2024-01-15T09:49:18;1.40;99.90
37300;DHT22;23184;51.902;12.836;2024-01-15T09:51:44;1.40;99.90
37300;DHT22;23184;51.902;12.836;2024-01-15T09:54:09;1.50;99.90
37300;DHT22;23184;51.902;12.836;2024-01-15T09:56:35;1.50;99.90
37300;DHT22;23184;51.902;12.836;2024-01-15T09:59:01;1.60;99.90
37300;DHT22;23184;51.902;12.836;2024-01-15T10:01:31;1.60;99.90
37300;DHT22;23184;51.902;12.836;2024-01-15T10:03:58;1.60;99.90
37300;DHT22;23184;51.902;12.836;2024-01-15T10:06:24;1.60;99.90
37300;DHT22;23184;51.902;12.836;2024-01-15T10:08:54;1.50;99.90
37300;DHT22;23184;51.902;12.836;2024-01-15T10:11:20;1.40;99.90
37300;DHT22;23184;51.902;12.836;2024-01-15T10:13:46;1.20;99.90
37300;DHT22;23184;51.902;12.836;2024-01-15T10:16:11;1.10;99.90
37300;DHT22;23184;51.902;12.836;2024-01-15T10:18:37;1.10;99.90
37300;DHT22;23184;51.902;12.836;2024-01-15T10:21:06;1.10;99.90
37300;DHT22;23184;51.902;12.836;2024-01-15T10:23:32;1.10;99.90
37300;DHT22;23184;51.902;12.836;2024-01-15T10:25:58;1.10;99.90
37300;DHT22;23184;51.902;12.836;2024-01-15T10:28:26;1.00;99.90
37300;DHT22;23184;51.902;12.836;2024-01-15T10:30:56;1.10;99.90
37300;DHT22;23184;51.902;12.836;2024-01-15T10:33:22;1.10;99.90
37300;DHT22;23184;51.902;12.836;2024-01-15T10:35:53;1.20;99.90
37300;DHT22;23184;51.902;12.836;2024-01-15T10:38:20;1.20;99.90
37300;DHT22;23184;51.902;12.836;2024-01-15T10:40:48;1.30;99.90
37300;DHT22;23184;51.902;12.836;2024-01-15T10:43:15;1.30;99.90
37300;DHT22;23184;51.902;12.836;2024-01-15T10:45:46;1.40;99.90
37300;DHT22;23184;51.902;12.836;2024-01-15T10:48:12;1.40;99.90
37300;DHT22;23184;51.902;12.836;2024-01-15T10:50:38;1.50;99.90
37300;DHT22;23184;51.902;12.836;2024-01-15T10:53:04;1.60;99.90
37300;DHT22;23184;51.902;12.836;2024-01-15T10:55:31;1.70;99.90
37300;DHT22;23184;51.902;12.836;2024-01-15T10:57:57;1.80;99.90
37300;DHT22;23184;51.902;12.836;2024-01-15T11:00:23;1.80;99.90
37300;DHT22;23184;51.902;12.836;2024-01-15T11:02:50;1.70;99.90
37300;DHT22;23184;51.902;12.836;2024-01-15T11:05:16;1.70;99.90
37300;DHT22;23184;51.902;12.836;2024-01-15T11:07:43;1.60;99.90
37300;DHT22;23184;51.902;12.836;2024-01-15T11:16:09;1.50;99.90
37300;DHT22;23184;51.902;12.836;2024-01-15T11:18:37;1.40;99.90
37300;DHT22;23184;51.902;12.836;2024-01-15T11:24:00;1.30;99.90
37300;DHT22;23184;51.902;12.836;2024-01-15T11:29:10;1.40;99.90
37300;DHT22;23184;51.902;12.836;2024-01-15T11:34:08;1.40;99.90
37300;DHT22;23184;51.902;12.836;2024-01-15T11:41:59;1.40;99.90
37300;DHT22;23184;51.902;12.836;2024-01-15T11:44:26;1.40;99.90
37300;DHT22;23184;51.902;12.836;2024-01-15T11:46:58;1.40;99.90
37300;DHT22;23184;51.902;12.836;2024-01-15T11:52:19;1.40;99.90
37300;DHT22;23184;51.902;12.836;2024-01-15T11:57:48;1.40;99.90
37300;DHT22;23184;51.902;12.836;2024-01-15T12:00:15;1.40;99.90
37300;DHT22;23184;51.902;12.836;2024-01-15T12:02:42;1.30;99.90
37300;DHT22;23184;51.902;12.836;2024-01-15T12:05:09;1.30;99.90
37300;DHT22;23184;51.902;12.836;2024-01-15T12:07:35;1.30;99.90
37300;DHT22;23184;51.902;12.836;2024-01-15T12:10:01;1.30;99.90
37300;DHT22;23184;51.902;12.836;2024-01-15T12:12:48;1.30;99.90
37300;DHT22;23184;51.902;12.836;2024-01-15T12:15:17;1.30;99.90
37300;DHT22;23184;51.902;12.836;2024-01-15T12:17:42;1.20;99.90
37300;DHT22;23184;51.902;12.836;2024-01-15T12:20:08;1.20;99.90
37300;DHT22;23184;51.902;12.836;2024-01-15T12:22:34;1.30;99.90
37300;DHT22;23184;51.902;12.836;2024-01-15T12:25:00;1.40;99.90
37300;DHT22;23184;51.902;12.836;2024-01-15T12:27:25;1.40;99.90
37300;DHT22;23184;51.902;12.836;2024-01-15T12:29:53;1.40;99.90
37300;DHT22;23184;51.902;12.836;2024-01-15T12:32:18;1.50;99.90
37300;DHT22;23184;51.902;12.836;2024-01-15T12:34:44;1.50;99.90
37300;DHT22;23184;51.902;12.836;2024-01-15T12:37:10;1.60;99.90
37300;DHT22;23184;51.902;12.836;2024-01-15T12:39:37;1.60;99.90
37300;DHT22;23184;51.902;12.836;2024-01-15T12:42:03;1.70;99.90
37300;DHT22;23184;51.902;12.836;2024-01-15T12:44:29;1.70;99.90
37300;DHT22;23184;51.902;12.836;2024-01-15T12:46:55;1.80;99.90
37300;DHT22;23184;51.902;12.836;2024-01-15T12:49:21;1.90;99.90
37300;DHT22;23184;51.902;12.836;2024-01-15T12:51:53;2.00;99.90
37300;DHT22;23184;51.902;12.836;2024-01-15T12:54:19;2.10;99.90
37300;DHT22;23184;51.902;12.836;2024-01-15T12:56:45;2.20;99.90
37300;DHT22;23184;51.902;12.836;2024-01-15T12:59:10;2.30;99.90
37300;DHT22;23184;51.902;12.836;2024-01-15T13:01:36;2.30;99.90
37300;DHT22;23184;51.902;12.836;2024-01-15T13:04:02;2.40;99.90
37300;DHT22;23184;51.902;12.836;2024-01-15T13:06:28;2.40;99.90
37300;DHT22;23184;51.902;12.836;2024-01-15T13:08:53;2.40;99.90
37300;DHT22;23184;51.902;12.836;2024-01-15T13:11:19;2.40;99.90
37300;DHT22;23184;51.902;12.836;2024-01-15T13:13:44;2.40;99.90
37300;DHT22;23184;51.902;12.836;2024-01-15T13:16:10;2.40;99.90
37300;DHT22;23184;51.902;12.836;2024-01-15T13:18:36;2.40;99.90
37300;DHT22;23184;51.902;12.836;2024-01-15T13:21:01;2.40;99.90
37300;DHT22;23184;51.902;12.836;2024-01-15T13:23:28;2.40;99.90
37300;DHT22;23184;51.902;12.836;2024-01-15T13:25:53;2.40;99.90
37300;DHT22;23184;51.902;12.836;2024-01-15T13:28:19;2.50;99.90
37300;DHT22;23184;51.902;12.836;2024-01-15T13:30:44;2.40;99.90
37300;DHT22;23184;51.902;12.836;2024-01-15T13:33:09;2.40;99.90
37300;DHT22;23184;51.902;12.836;2024-01-15T13:35:35;2.40;99.90
37300;DHT22;23184;51.902;12.836;2024-01-15T13:41:17;2.40;99.90
37300;DHT22;23184;51.902;12.836;2024-01-15T13:43:55;2.30;99.90
37300;DHT22;23184;51.902;12.836;2024-01-15T13:46:25;2.40;99.90
37300;DHT22;23184;51.902;12.836;2024-01-15T13:48:55;2.30;99.90
37300;DHT22;23184;51.902;12.836;2024-01-15T13:51:24;2.30;99.90
37300;DHT22;23184;51.902;12.836;2024-01-15T13:53:50;2.30;99.90
37300;DHT22;23184;51.902;12.836;2024-01-15T13:56:16;2.30;99.90
37300;DHT22;23184;51.902;12.836;2024-01-15T13:58:42;2.30;99.90
37300;DHT22;23184;51.902;12.836;2024-01-15T14:01:08;2.30;99.90
37300;DHT22;23184;51.902;12.836;2024-01-15T14:03:33;2.30;99.90
37300;DHT22;23184;51.902;12.836;2024-01-15T14:05:59;2.30;99.90
37300;DHT22;23184;51.902;12.836;2024-01-15T14:08:25;2.20;99.90
37300;DHT22;23184;51.902;12.836;2024-01-15T14:10:51;2.20;99.90
37300;DHT22;23184;51.902;12.836;2024-01-15T14:13:16;2.20;99.90
37300;DHT22;23184;51.902;12.836;2024-01-15T14:15:42;2.30;99.90
37300;DHT22;23184;51.902;12.836;2024-01-15T14:18:08;2.30;99.90
37300;DHT22;23184;51.902;12.836;2024-01-15T14:20:33;2.30;99.90
37300;DHT22;23184;51.902;12.836;2024-01-15T14:22:59;2.30;99.90
37300;DHT22;23184;51.902;12.836;2024-01-15T14:25:24;2.40;99.90
37300;DHT22;23184;51.902;12.836;2024-01-15T14:27:50;2.40;99.90
37300;DHT22;23184;51.902;12.836;2024-01-15T14:30:15;2.40;99.90
37300;DHT22;23184;51.902;12.836;2024-01-15T14:32:42;2.40;99.90
37300;DHT22;23184;51.902;12.836;2024-01-15T14:35:08;2.40;99.90
37300;DHT22;23184;51.902;12.836;2024-01-15T14:37:39;2.40;99.90
37300;DHT22;23184;51.902;12.836;2024-01-15T14:40:06;2.40;99.90
37300;DHT22;23184;51.902;12.836;2024-01-15T14:42:33;2.30;99.90
37300;DHT22;23184;51.902;12.836;2024-01-15T14:44:58;2.30;99.90
37300;DHT22;23184;51.902;12.836;2024-01-15T14:47:24;2.30;99.90
37300;DHT22;23184;51.902;12.836;2024-01-15T14:49:50;2.30;99.90
37300;DHT22;23184;51.902;12.836;2024-01-15T14:52:15;2.30;99.90
37300;DHT22;23184;51.902;12.836;2024-01-15T14:54:41;2.20;99.90
37300;DHT22;23184;51.902;12.836;2024-01-15T14:57:07;2.20;99.90
37300;DHT22;23184;51.902;12.836;2024-01-15T14:59:32;2.20;99.90
37300;DHT22;23184;51.902;12.836;2024-01-15T15:01:57;2.20;99.90
37300;DHT22;23184;51.902;12.836;2024-01-15T15:04:23;2.20;99.90
37300;DHT22;23184;51.902;12.836;2024-01-15T15:06:49;2.20;99.90
37300;DHT22;23184;51.902;12.836;2024-01-15T15:09:15;2.20;99.90
37300;DHT22;23184;51.902;12.836;2024-01-15T15:11:41;2.10;99.90
37300;DHT22;23184;51.902;12.836;2024-01-15T15:14:06;2.10;99.90
37300;DHT22;23184;51.902;12.836;2024-01-15T15:16:32;2.10;99.90
37300;DHT22;23184;51.902;12.836;2024-01-15T15:18:57;2.10;99.90
37300;DHT22;23184;51.902;12.836;2024-01-15T15:21:23;2.00;99.90
37300;DHT22;23184;51.902;12.836;2024-01-15T15:23:48;2.00;99.90
37300;DHT22;23184;51.902;12.836;2024-01-15T15:26:14;2.00;99.90
37300;DHT22;23184;51.902;12.836;2024-01-15T15:28:39;2.00;99.90
37300;DHT22;23184;51.902;12.836;2024-01-15T15:31:08;2.00;99.90
37300;DHT22;23184;51.902;12.836;2024-01-15T15:33:34;1.90;99.90
37300;DHT22;23184;51.902;12.836;2024-01-15T15:35:59;1.90;99.90
37300;DHT22;23184;51.902;12.836;2024-01-15T15:38:33;1.90;99.90
37300;DHT22;23184;51.902;12.836;2024-01-15T15:40:58;1.90;99.90
37300;DHT22;23184;51.902;12.836;2024-01-15T15:43:25;1.90;99.90
37300;DHT22;23184;51.902;12.836;2024-01-15T15:45:51;1.80;99.90
37300;DHT22;23184;51.902;12.836;2024-01-15T15:48:16;1.80;99.90
37300;DHT22;23184;51.902;12.836;2024-01-15T15:50:42;1.80;99.90